Guide — WDE7328 — position and weather

sailwx.info

Track history (hours):
 
Tides and Currents Weather Stations Pressure Air Temp Water Temp Dewpoint Dewpoint Depression Visibility Wind Speed Wind Dir Waves Ship Positions

Guide

Owner: Crowley Marine Services, SEATTLE, WA. More information available from US FCC via Universal Licensing System and Coast Guard Vessel Documentation Center.

Last reported at 2016-Jun-25 01:33 UTC. Time now 2016-Jun-25 01:43 UTC.
Position N 47°16' W 122°24'.

Length 34 m; draft 5.1 m.

Type: Tug. MMSI: 366759530.

Date/timePositionNaut miles runAvg speedWind from/ knotsBaromVisibWave heightAir tempDewpointWater temp
2016-Jun-25 01:33N 47°16' W 122°24'1 1.1
2016-Jun-25 00:33N 47°16' W 122°23'1 1.3
2016-Jun-24 23:33N 47°16' W 122°25'1 1.0
2016-Jun-24 22:33N 47°17' W 122°26'2 1.5
2016-Jun-24 21:32N 47°15' W 122°26'0 0.0
2016-Jun-24 20:23N 47°15' W 122°26'0 0.0
2016-Jun-24 19:33N 47°15' W 122°26'0 0.0
2016-Jun-24 18:33N 47°15' W 122°26'0 0.0
2016-Jun-24 17:33N 47°15' W 122°26'0 0.0
2016-Jun-24 16:33N 47°15' W 122°26'0 0.0
2016-Jun-24 15:33N 47°15' W 122°26'0 0.0
2016-Jun-24 14:33N 47°15' W 122°26'0 0.0
2016-Jun-24 13:33N 47°15' W 122°26'1 0.5
2016-Jun-24 12:33N 47°16' W 122°26'2 2.3
2016-Jun-24 11:32N 47°15' W 122°23'3 3.0
2016-Jun-24 10:33N 47°17' W 122°26'2 2.2
2016-Jun-24 09:33N 47°15' W 122°26'0 0.0
2016-Jun-24 08:33N 47°15' W 122°26'0 0.0
2016-Jun-24 07:33N 47°15' W 122°26'0 0.0
2016-Jun-24 04:33N 47°15' W 122°26'0 0.0
2016-Jun-24 03:33N 47°15' W 122°26'2 1.8
2016-Jun-24 02:33N 47°16' W 122°24'1 0.9
2016-Jun-24 01:33N 47°15' W 122°23'1 1.3
2016-Jun-24 00:33N 47°16' W 122°24'1 0.6
2016-Jun-23 23:33N 47°17' W 122°25'2 1.6
2016-Jun-23 22:33N 47°15' W 122°26'0 0.0
2016-Jun-23 21:29N 47°15' W 122°26'0 0.0
2016-Jun-23 20:33N 47°15' W 122°26'0 0.0
2016-Jun-23 19:33N 47°15' W 122°26'0 0.0
2016-Jun-23 18:24N 47°15' W 122°26'0 0.0
2016-Jun-23 17:33N 47°15' W 122°26'0 0.0
2016-Jun-23 16:33N 47°15' W 122°26'0 0.0
2016-Jun-23 15:33N 47°15' W 122°26'0 0.0
2016-Jun-23 14:33N 47°15' W 122°26'2 1.6
2016-Jun-23 13:33N 47°17' W 122°25'1 0.9
2016-Jun-23 12:33N 47°16' W 122°24'1 0.6
2016-Jun-23 11:33N 47°16' W 122°24'1 0.8
2016-Jun-23 10:33N 47°16' W 122°23'1 0.6
2016-Jun-23 09:33N 47°16' W 122°24'0 0.0
2016-Jun-23 08:33N 47°16' W 122°24'0 0.0
2016-Jun-23 07:26N 47°16' W 122°24'1 0.5
2016-Jun-23 05:33N 47°16' W 122°23'1 0.7
2016-Jun-23 04:03N 47°16' W 122°24'0 0.0
2016-Jun-23 03:33N 47°16' W 122°24'0 0.0
2016-Jun-23 02:31N 47°16' W 122°24'0 0.0
2016-Jun-23 01:28N 47°16' W 122°24'0 0.0
2016-Jun-23 00:28N 47°16' W 122°24'1 0.7
2016-Jun-22 23:33N 47°16' W 122°25'2 1.8
2016-Jun-22 22:33N 47°15' W 122°23'2 2.3
2016-Jun-22 21:33N 47°17' W 122°25'2 1.7
2016-Jun-22 20:33N 47°15' W 122°26'0 0.0
2016-Jun-22 19:33N 47°15' W 122°26'0 0.0
2016-Jun-22 18:33N 47°15' W 122°26'0 0.0
2016-Jun-22 17:16N 47°15' W 122°26'0 0.0
2016-Jun-22 16:33N 47°15' W 122°26'2 0.8
2016-Jun-22 14:13N 47°17' W 122°24'1 0.7
2016-Jun-22 13:31N 47°16' W 122°24'0 0.0
2016-Jun-22 12:29N 47°16' W 122°24'1 0.7
2016-Jun-22 11:33N 47°16' W 122°23'2 2.3
2016-Jun-22 10:33N 47°17' W 122°26'1 1.3
2016-Jun-22 09:33N 47°16' W 122°25'1 1.3
2016-Jun-22 08:33N 47°17' W 122°26'1 0.6
2016-Jun-22 07:33N 47°18' W 122°26'0 0.0
2016-Jun-22 06:34N 47°18' W 122°26'0 0.0
2016-Jun-22 05:33N 47°18' W 122°26'0 0.0
2016-Jun-22 04:33N 47°18' W 122°26'0 0.0
2016-Jun-22 03:32N 47°18' W 122°26'0 0.0
2016-Jun-22 02:33N 47°18' W 122°26'0 0.0
2016-Jun-22 01:33N 47°18' W 122°26'1 1.4
2016-Jun-22 00:33N 47°17' W 122°25'0 0.1
2016-Jun-21 23:33N 47°17' W 122°25'1 0.6
2016-Jun-21 22:29N 47°16' W 122°24'1 0.7
2016-Jun-21 21:33N 47°16' W 122°23'3 2.5
2016-Jun-21 20:33N 47°18' W 122°26'0 0.2
2016-Jun-21 19:33N 47°18' W 122°26'0 0.0
2016-Jun-21 18:33N 47°18' W 122°26'0 0.0
2016-Jun-21 17:33N 47°18' W 122°26'2 2.4
2016-Jun-21 16:32N 47°15' W 122°26'0 0.0
2016-Jun-21 15:33N 47°15' W 122°26'0 0.0
2016-Jun-21 14:33N 47°15' W 122°26'0 0.0
2016-Jun-21 13:33N 47°15' W 122°26'0 0.0
2016-Jun-21 12:33N 47°15' W 122°26'0 0.0
2016-Jun-21 11:33N 47°15' W 122°26'0 0.0
2016-Jun-21 10:33N 47°15' W 122°26'0 0.0
2016-Jun-21 09:33N 47°15' W 122°26'0 0.0
2016-Jun-21 08:33N 47°15' W 122°26'0 0.0
2016-Jun-21 07:33N 47°15' W 122°26'0 0.0
2016-Jun-21 05:33N 47°15' W 122°26'0 0.0
2016-Jun-21 04:33N 47°15' W 122°26'1 1.4
2016-Jun-21 03:33N 47°17' W 122°26'2 1.8
2016-Jun-21 02:17N 47°16' W 122°22'2 2.9
2016-Jun-21 01:31N 47°17' W 122°25'1 0.8
2016-Jun-21 00:33N 47°17' W 122°25'1 1.5
2016-Jun-20 23:33N 47°16' W 122°23'0 0.0
2016-Jun-20 22:33N 47°16' W 122°23'6 5.7
2016-Jun-20 21:33N 47°21' W 122°26'7 7.4
2016-Jun-20 20:33N 47°28' W 122°25'8 7.7
2016-Jun-20 19:33N 47°36' W 122°23'2 1.6
2016-Jun-20 18:33N 47°35' W 122°22'1 0.6
2016-Jun-20 17:33N 47°35' W 122°21'0 0.0
2016-Jun-20 16:33N 47°35' W 122°21'0 0.0
2016-Jun-20 15:33N 47°35' W 122°21'0 0.0
2016-Jun-20 14:34N 47°35' W 122°21'0 0.0
2016-Jun-20 13:33N 47°35' W 122°21'0 0.0
2016-Jun-20 12:33N 47°35' W 122°21'0 0.0
2016-Jun-20 11:33N 47°35' W 122°21'0 0.0
2016-Jun-20 10:33N 47°35' W 122°21'0 0.0
2016-Jun-20 09:33N 47°35' W 122°21'0 0.0
2016-Jun-20 08:33N 47°35' W 122°21'0 0.0
2016-Jun-20 07:33N 47°35' W 122°21'0 0.0
2016-Jun-20 06:33N 47°35' W 122°21'0 0.0
2016-Jun-20 05:33N 47°35' W 122°21'0 0.0
2016-Jun-20 04:33N 47°35' W 122°21'0 0.0
2016-Jun-20 03:33N 47°35' W 122°21'0 0.0
2016-Jun-20 02:33N 47°35' W 122°21'0 0.0
2016-Jun-20 01:33N 47°35' W 122°21'0 0.0
2016-Jun-20 00:33N 47°35' W 122°21'0 0.2
2016-Jun-19 23:33N 47°35' W 122°21'1 0.6
2016-Jun-19 22:33N 47°36' W 122°21'1 1.2
2016-Jun-19 21:33N 47°35' W 122°22'1 0.6
2016-Jun-19 20:33N 47°35' W 122°21'0 0.2
2016-Jun-19 19:33N 47°35' W 122°21'0 0.0
2016-Jun-19 18:33N 47°35' W 122°21'5 5.3
2016-Jun-19 17:33N 47°39' W 122°27'7 6.9
2016-Jun-19 16:33N 47°45' W 122°27'7 6.9
2016-Jun-19 15:33N 47°52' W 122°29'6 6.3
2016-Jun-19 14:32N 47°57' W 122°35'22 6.6
2016-Jun-19 11:10N 48°18' W 122°48'5 8.8
2016-Jun-19 10:33N 48°23' W 122°45'8 8.0
2016-Jun-19 09:33N 48°31' W 122°42'3 3.5
2016-Jun-19 08:33N 48°31' W 122°37'0 0.0
2016-Jun-19 07:33N 48°31' W 122°37'0 0.0
2016-Jun-19 06:33N 48°31' W 122°37'0 0.0
2016-Jun-19 05:33N 48°31' W 122°37'0 0.0
2016-Jun-19 04:33N 48°31' W 122°37'0 0.0
2016-Jun-19 03:32N 48°31' W 122°37'0 0.0
2016-Jun-19 02:33N 48°31' W 122°37'0 0.0
2016-Jun-19 01:33N 48°31' W 122°37'0 0.1
2016-Jun-19 00:33N 48°31' W 122°37'0 0.1
2016-Jun-18 22:34N 48°31' W 122°37'0 0.0
2016-Jun-18 21:34N 48°31' W 122°37'0 0.0
2016-Jun-18 20:34N 48°31' W 122°37'0 0.0
2016-Jun-18 19:33N 48°31' W 122°37'0 0.0
2016-Jun-18 18:34N 48°31' W 122°37'0 0.0
2016-Jun-18 17:34N 48°31' W 122°37'0 0.0
2016-Jun-18 16:34N 48°31' W 122°37'0 0.0
2016-Jun-18 15:33N 48°31' W 122°37'0 0.0
2016-Jun-18 14:34N 48°31' W 122°37'0 0.0
2016-Jun-18 13:34N 48°31' W 122°37'0 0.0
2016-Jun-18 12:34N 48°31' W 122°37'0 0.0
2016-Jun-18 11:34N 48°31' W 122°37'0 0.0
2016-Jun-18 10:34N 48°31' W 122°37'0 0.0
2016-Jun-18 09:34N 48°31' W 122°37'0 0.0
2016-Jun-18 08:34N 48°31' W 122°37'0 0.0
2016-Jun-18 07:33N 48°31' W 122°37'0 0.0
2016-Jun-18 06:33N 48°31' W 122°37'0 0.0
2016-Jun-18 05:34N 48°31' W 122°37'0 0.0
2016-Jun-18 04:34N 48°31' W 122°37'0 0.0
2016-Jun-18 03:34N 48°31' W 122°37'0 0.0
2016-Jun-18 02:34N 48°31' W 122°37'0 0.0
2016-Jun-18 01:34N 48°31' W 122°37'0 0.0
2016-Jun-18 00:25N 48°31' W 122°37'0 0.0
2016-Jun-17 23:33N 48°31' W 122°37'0 0.0
2016-Jun-17 22:33N 48°31' W 122°37'0 0.0
2016-Jun-17 21:33N 48°31' W 122°37'0 0.0
2016-Jun-17 20:33N 48°31' W 122°37'0 0.0
2016-Jun-17 19:33N 48°31' W 122°37'0 0.0
2016-Jun-17 18:33N 48°31' W 122°37'0 0.0
2016-Jun-17 17:33N 48°31' W 122°37'0 0.0
2016-Jun-17 16:33N 48°31' W 122°37'0 0.0
2016-Jun-17 15:33N 48°31' W 122°37'0 0.0
2016-Jun-17 14:33N 48°31' W 122°37'0 0.0
2016-Jun-17 13:33N 48°31' W 122°37'0 0.0
2016-Jun-17 12:33N 48°31' W 122°37'0 0.0
2016-Jun-17 11:33N 48°31' W 122°37'0 0.0
2016-Jun-17 10:33N 48°31' W 122°37'0 0.0
2016-Jun-17 09:33N 48°31' W 122°37'0 0.0
2016-Jun-17 08:33N 48°31' W 122°37'0 0.0
2016-Jun-17 07:33N 48°31' W 122°37'0 0.0
2016-Jun-17 06:33N 48°31' W 122°37'0 0.0
2016-Jun-17 05:33N 48°31' W 122°37'0 0.0
2016-Jun-17 04:33N 48°31' W 122°37'0 0.0
2016-Jun-17 03:33N 48°31' W 122°37'0 0.0
2016-Jun-17 02:33N 48°31' W 122°37'0 0.0
2016-Jun-17 01:33N 48°31' W 122°37'0 0.0
2016-Jun-17 00:33N 48°31' W 122°37'0 0.0
2016-Jun-16 23:33N 48°31' W 122°37'0 0.0
2016-Jun-16 22:33N 48°31' W 122°37'0 0.0
2016-Jun-16 21:33N 48°31' W 122°37'0 0.0
2016-Jun-16 20:33N 48°31' W 122°37'0 0.0
2016-Jun-16 19:33N 48°31' W 122°37'0 0.0
2016-Jun-16 18:33N 48°31' W 122°37'0 0.0
2016-Jun-16 17:33N 48°31' W 122°37'0 0.0
2016-Jun-16 16:33N 48°31' W 122°37'0 0.0
2016-Jun-16 15:33N 48°31' W 122°37'0 0.0
2016-Jun-16 14:33N 48°31' W 122°37'0 0.0
2016-Jun-16 13:33N 48°31' W 122°37'0 0.0
2016-Jun-16 12:33N 48°31' W 122°37'0 0.0
2016-Jun-16 11:33N 48°31' W 122°37'0 0.0
2016-Jun-16 10:33N 48°31' W 122°37'0 0.0
2016-Jun-16 09:34N 48°31' W 122°37'0 0.0
2016-Jun-16 08:33N 48°31' W 122°37'0 0.0
2016-Jun-16 07:33N 48°31' W 122°37'0 0.0
2016-Jun-16 06:33N 48°31' W 122°37'0 0.0
2016-Jun-16 05:33N 48°31' W 122°37'0 0.0
2016-Jun-16 04:33N 48°31' W 122°37'0 0.0
2016-Jun-16 03:33N 48°31' W 122°37'0 0.0
2016-Jun-16 02:33N 48°31' W 122°37'0 0.0
2016-Jun-16 01:33N 48°31' W 122°37'0 0.0
2016-Jun-16 00:33N 48°31' W 122°37'0 0.0
2016-Jun-15 22:33N 48°31' W 122°37'0 0.0
2016-Jun-15 21:34N 48°31' W 122°37'0 0.0
2016-Jun-15 20:33N 48°31' W 122°37'0 0.0
2016-Jun-15 19:33N 48°31' W 122°37'0 0.0
2016-Jun-15 18:29N 48°31' W 122°37'4 4.0
2016-Jun-15 17:33N 48°31' W 122°42'1010.0
2016-Jun-15 16:32N 48°21' W 122°45'10 9.5
2016-Jun-15 15:29N 48°11' W 122°45'1111.9
2016-Jun-15 14:33N 48°01' W 122°37'1211.7
2016-Jun-15 13:34N 47°52' W 122°27'1111.1
2016-Jun-15 12:34N 47°40' W 122°27'7 6.5
2016-Jun-15 11:33N 47°35' W 122°22'1 1.1
2016-Jun-15 10:34N 47°36' W 122°22'1 1.3
2016-Jun-15 09:33N 47°35' W 122°21'0 0.3
2016-Jun-15 08:34N 47°35' W 122°21'0 0.0
2016-Jun-15 07:33N 47°35' W 122°21'0 0.0
2016-Jun-15 06:33N 47°35' W 122°21'0 0.0
2016-Jun-15 05:34N 47°35' W 122°21'0 0.0
2016-Jun-15 04:34N 47°35' W 122°21'0 0.1
2016-Jun-15 03:34N 47°35' W 122°21'5 5.4
2016-Jun-15 02:34N 47°30' W 122°25'1111.0
2016-Jun-15 01:34N 47°19' W 122°26'  
Track history (hours):
 
Tides and Currents Weather Stations Pressure Air Temp Water Temp Dewpoint Dewpoint Depression Visibility Wind Speed Wind Dir Waves Ship Positions

Guide

Owner: Crowley Marine Services, SEATTLE, WA. More information available from US FCC via Universal Licensing System and Coast Guard Vessel Documentation Center.

Last reported at 2016-Jun-25 01:33 UTC. Time now 2016-Jun-25 01:43 UTC.
Position N 47°16' W 122°24'.

Length 34 m; draft 5.1 m.

Type: Tug. MMSI: 366759530.

Date/timePositionNaut miles runAvg speedWind from/ knotsBaromVisibWave heightAir tempDewpointWater temp
2016-Jun-25 01:33N 47°16' W 122°24'1 1.1
2016-Jun-25 00:33N 47°16' W 122°23'1 1.3
2016-Jun-24 23:33N 47°16' W 122°25'1 1.0
2016-Jun-24 22:33N 47°17' W 122°26'2 1.5
2016-Jun-24 21:32N 47°15' W 122°26'0 0.0
2016-Jun-24 20:23N 47°15' W 122°26'0 0.0
2016-Jun-24 19:33N 47°15' W 122°26'0 0.0
2016-Jun-24 18:33N 47°15' W 122°26'0 0.0
2016-Jun-24 17:33N 47°15' W 122°26'0 0.0
2016-Jun-24 16:33N 47°15' W 122°26'0 0.0
2016-Jun-24 15:33N 47°15' W 122°26'0 0.0
2016-Jun-24 14:33N 47°15' W 122°26'0 0.0
2016-Jun-24 13:33N 47°15' W 122°26'1 0.5
2016-Jun-24 12:33N 47°16' W 122°26'2 2.3
2016-Jun-24 11:32N 47°15' W 122°23'3 3.0
2016-Jun-24 10:33N 47°17' W 122°26'2 2.2
2016-Jun-24 09:33N 47°15' W 122°26'0 0.0
2016-Jun-24 08:33N 47°15' W 122°26'0 0.0
2016-Jun-24 07:33N 47°15' W 122°26'0 0.0
2016-Jun-24 04:33N 47°15' W 122°26'0 0.0
2016-Jun-24 03:33N 47°15' W 122°26'2 1.8
2016-Jun-24 02:33N 47°16' W 122°24'1 0.9
2016-Jun-24 01:33N 47°15' W 122°23'1 1.3
2016-Jun-24 00:33N 47°16' W 122°24'1 0.6
2016-Jun-23 23:33N 47°17' W 122°25'2 1.6
2016-Jun-23 22:33N 47°15' W 122°26'0 0.0
2016-Jun-23 21:29N 47°15' W 122°26'0 0.0
2016-Jun-23 20:33N 47°15' W 122°26'0 0.0
2016-Jun-23 19:33N 47°15' W 122°26'0 0.0
2016-Jun-23 18:24N 47°15' W 122°26'0 0.0
2016-Jun-23 17:33N 47°15' W 122°26'0 0.0
2016-Jun-23 16:33N 47°15' W 122°26'0 0.0
2016-Jun-23 15:33N 47°15' W 122°26'0 0.0
2016-Jun-23 14:33N 47°15' W 122°26'2 1.6
2016-Jun-23 13:33N 47°17' W 122°25'1 0.9
2016-Jun-23 12:33N 47°16' W 122°24'1 0.6
2016-Jun-23 11:33N 47°16' W 122°24'1 0.8
2016-Jun-23 10:33N 47°16' W 122°23'1 0.6
2016-Jun-23 09:33N 47°16' W 122°24'0 0.0
2016-Jun-23 08:33N 47°16' W 122°24'0 0.0
2016-Jun-23 07:26N 47°16' W 122°24'1 0.5
2016-Jun-23 05:33N 47°16' W 122°23'1 0.7
2016-Jun-23 04:03N 47°16' W 122°24'0 0.0
2016-Jun-23 03:33N 47°16' W 122°24'0 0.0
2016-Jun-23 02:31N 47°16' W 122°24'0 0.0
2016-Jun-23 01:28N 47°16' W 122°24'0 0.0
2016-Jun-23 00:28N 47°16' W 122°24'1 0.7
2016-Jun-22 23:33N 47°16' W 122°25'2 1.8
2016-Jun-22 22:33N 47°15' W 122°23'2 2.3
2016-Jun-22 21:33N 47°17' W 122°25'2 1.7
2016-Jun-22 20:33N 47°15' W 122°26'0 0.0
2016-Jun-22 19:33N 47°15' W 122°26'0 0.0
2016-Jun-22 18:33N 47°15' W 122°26'0 0.0
2016-Jun-22 17:16N 47°15' W 122°26'0 0.0
2016-Jun-22 16:33N 47°15' W 122°26'2 0.8
2016-Jun-22 14:13N 47°17' W 122°24'1 0.7
2016-Jun-22 13:31N 47°16' W 122°24'0 0.0
2016-Jun-22 12:29N 47°16' W 122°24'1 0.7
2016-Jun-22 11:33N 47°16' W 122°23'2 2.3
2016-Jun-22 10:33N 47°17' W 122°26'1 1.3
2016-Jun-22 09:33N 47°16' W 122°25'1 1.3
2016-Jun-22 08:33N 47°17' W 122°26'1 0.6
2016-Jun-22 07:33N 47°18' W 122°26'0 0.0
2016-Jun-22 06:34N 47°18' W 122°26'0 0.0
2016-Jun-22 05:33N 47°18' W 122°26'0 0.0
2016-Jun-22 04:33N 47°18' W 122°26'0 0.0
2016-Jun-22 03:32N 47°18' W 122°26'0 0.0
2016-Jun-22 02:33N 47°18' W 122°26'0 0.0
2016-Jun-22 01:33N 47°18' W 122°26'1 1.4
2016-Jun-22 00:33N 47°17' W 122°25'0 0.1
2016-Jun-21 23:33N 47°17' W 122°25'1 0.6
2016-Jun-21 22:29N 47°16' W 122°24'1 0.7
2016-Jun-21 21:33N 47°16' W 122°23'3 2.5
2016-Jun-21 20:33N 47°18' W 122°26'0 0.2
2016-Jun-21 19:33N 47°18' W 122°26'0 0.0
2016-Jun-21 18:33N 47°18' W 122°26'0 0.0
2016-Jun-21 17:33N 47°18' W 122°26'2 2.4
2016-Jun-21 16:32N 47°15' W 122°26'0 0.0
2016-Jun-21 15:33N 47°15' W 122°26'0 0.0
2016-Jun-21 14:33N 47°15' W 122°26'0 0.0
2016-Jun-21 13:33N 47°15' W 122°26'0 0.0
2016-Jun-21 12:33N 47°15' W 122°26'0 0.0
2016-Jun-21 11:33N 47°15' W 122°26'0 0.0
2016-Jun-21 10:33N 47°15' W 122°26'0 0.0
2016-Jun-21 09:33N 47°15' W 122°26'0 0.0
2016-Jun-21 08:33N 47°15' W 122°26'0 0.0
2016-Jun-21 07:33N 47°15' W 122°26'0 0.0
2016-Jun-21 05:33N 47°15' W 122°26'0 0.0
2016-Jun-21 04:33N 47°15' W 122°26'1 1.4
2016-Jun-21 03:33N 47°17' W 122°26'2 1.8
2016-Jun-21 02:17N 47°16' W 122°22'2 2.9
2016-Jun-21 01:31N 47°17' W 122°25'1 0.8
2016-Jun-21 00:33N 47°17' W 122°25'1 1.5
2016-Jun-20 23:33N 47°16' W 122°23'0 0.0
2016-Jun-20 22:33N 47°16' W 122°23'6 5.7
2016-Jun-20 21:33N 47°21' W 122°26'7 7.4
2016-Jun-20 20:33N 47°28' W 122°25'8 7.7
2016-Jun-20 19:33N 47°36' W 122°23'2 1.6
2016-Jun-20 18:33N 47°35' W 122°22'1 0.6
2016-Jun-20 17:33N 47°35' W 122°21'0 0.0
2016-Jun-20 16:33N 47°35' W 122°21'0 0.0
2016-Jun-20 15:33N 47°35' W 122°21'0 0.0
2016-Jun-20 14:34N 47°35' W 122°21'0 0.0
2016-Jun-20 13:33N 47°35' W 122°21'0 0.0
2016-Jun-20 12:33N 47°35' W 122°21'0 0.0
2016-Jun-20 11:33N 47°35' W 122°21'0 0.0
2016-Jun-20 10:33N 47°35' W 122°21'0 0.0
2016-Jun-20 09:33N 47°35' W 122°21'0 0.0
2016-Jun-20 08:33N 47°35' W 122°21'0 0.0
2016-Jun-20 07:33N 47°35' W 122°21'0 0.0
2016-Jun-20 06:33N 47°35' W 122°21'0 0.0
2016-Jun-20 05:33N 47°35' W 122°21'0 0.0
2016-Jun-20 04:33N 47°35' W 122°21'0 0.0
2016-Jun-20 03:33N 47°35' W 122°21'0 0.0
2016-Jun-20 02:33N 47°35' W 122°21'0 0.0
2016-Jun-20 01:33N 47°35' W 122°21'0 0.0
2016-Jun-20 00:33N 47°35' W 122°21'0 0.2
2016-Jun-19 23:33N 47°35' W 122°21'1 0.6
2016-Jun-19 22:33N 47°36' W 122°21'1 1.2
2016-Jun-19 21:33N 47°35' W 122°22'1 0.6
2016-Jun-19 20:33N 47°35' W 122°21'0 0.2
2016-Jun-19 19:33N 47°35' W 122°21'0 0.0
2016-Jun-19 18:33N 47°35' W 122°21'5 5.3
2016-Jun-19 17:33N 47°39' W 122°27'7 6.9
2016-Jun-19 16:33N 47°45' W 122°27'7 6.9
2016-Jun-19 15:33N 47°52' W 122°29'6 6.3
2016-Jun-19 14:32N 47°57' W 122°35'22 6.6
2016-Jun-19 11:10N 48°18' W 122°48'5 8.8
2016-Jun-19 10:33N 48°23' W 122°45'8 8.0
2016-Jun-19 09:33N 48°31' W 122°42'3 3.5
2016-Jun-19 08:33N 48°31' W 122°37'0 0.0
2016-Jun-19 07:33N 48°31' W 122°37'0 0.0
2016-Jun-19 06:33N 48°31' W 122°37'0 0.0
2016-Jun-19 05:33N 48°31' W 122°37'0 0.0
2016-Jun-19 04:33N 48°31' W 122°37'0 0.0
2016-Jun-19 03:32N 48°31' W 122°37'0 0.0
2016-Jun-19 02:33N 48°31' W 122°37'0 0.0
2016-Jun-19 01:33N 48°31' W 122°37'0 0.1
2016-Jun-19 00:33N 48°31' W 122°37'0 0.1
2016-Jun-18 22:34N 48°31' W 122°37'0 0.0
2016-Jun-18 21:34N 48°31' W 122°37'0 0.0
2016-Jun-18 20:34N 48°31' W 122°37'0 0.0
2016-Jun-18 19:33N 48°31' W 122°37'0 0.0
2016-Jun-18 18:34N 48°31' W 122°37'0 0.0
2016-Jun-18 17:34N 48°31' W 122°37'0 0.0
2016-Jun-18 16:34N 48°31' W 122°37'0 0.0
2016-Jun-18 15:33N 48°31' W 122°37'0 0.0
2016-Jun-18 14:34N 48°31' W 122°37'0 0.0
2016-Jun-18 13:34N 48°31' W 122°37'0 0.0
2016-Jun-18 12:34N 48°31' W 122°37'0 0.0
2016-Jun-18 11:34N 48°31' W 122°37'0 0.0
2016-Jun-18 10:34N 48°31' W 122°37'0 0.0
2016-Jun-18 09:34N 48°31' W 122°37'0 0.0
2016-Jun-18 08:34N 48°31' W 122°37'0 0.0
2016-Jun-18 07:33N 48°31' W 122°37'0 0.0
2016-Jun-18 06:33N 48°31' W 122°37'0 0.0
2016-Jun-18 05:34N 48°31' W 122°37'0 0.0
2016-Jun-18 04:34N 48°31' W 122°37'0 0.0
2016-Jun-18 03:34N 48°31' W 122°37'0 0.0
2016-Jun-18 02:34N 48°31' W 122°37'0 0.0
2016-Jun-18 01:34N 48°31' W 122°37'0 0.0
2016-Jun-18 00:25N 48°31' W 122°37'0 0.0
2016-Jun-17 23:33N 48°31' W 122°37'0 0.0
2016-Jun-17 22:33N 48°31' W 122°37'0 0.0
2016-Jun-17 21:33N 48°31' W 122°37'0 0.0
2016-Jun-17 20:33N 48°31' W 122°37'0 0.0
2016-Jun-17 19:33N 48°31' W 122°37'0 0.0
2016-Jun-17 18:33N 48°31' W 122°37'0 0.0
2016-Jun-17 17:33N 48°31' W 122°37'0 0.0
2016-Jun-17 16:33N 48°31' W 122°37'0 0.0
2016-Jun-17 15:33N 48°31' W 122°37'0 0.0
2016-Jun-17 14:33N 48°31' W 122°37'0 0.0
2016-Jun-17 13:33N 48°31' W 122°37'0 0.0
2016-Jun-17 12:33N 48°31' W 122°37'0 0.0
2016-Jun-17 11:33N 48°31' W 122°37'0 0.0
2016-Jun-17 10:33N 48°31' W 122°37'0 0.0
2016-Jun-17 09:33N 48°31' W 122°37'0 0.0
2016-Jun-17 08:33N 48°31' W 122°37'0 0.0
2016-Jun-17 07:33N 48°31' W 122°37'0 0.0
2016-Jun-17 06:33N 48°31' W 122°37'0 0.0
2016-Jun-17 05:33N 48°31' W 122°37'0 0.0
2016-Jun-17 04:33N 48°31' W 122°37'0 0.0
2016-Jun-17 03:33N 48°31' W 122°37'0 0.0
2016-Jun-17 02:33N 48°31' W 122°37'0 0.0
2016-Jun-17 01:33N 48°31' W 122°37'0 0.0
2016-Jun-17 00:33N 48°31' W 122°37'0 0.0
2016-Jun-16 23:33N 48°31' W 122°37'0 0.0
2016-Jun-16 22:33N 48°31' W 122°37'0 0.0
2016-Jun-16 21:33N 48°31' W 122°37'0 0.0
2016-Jun-16 20:33N 48°31' W 122°37'0 0.0
2016-Jun-16 19:33N 48°31' W 122°37'0 0.0
2016-Jun-16 18:33N 48°31' W 122°37'0 0.0
2016-Jun-16 17:33N 48°31' W 122°37'0 0.0
2016-Jun-16 16:33N 48°31' W 122°37'0 0.0
2016-Jun-16 15:33N 48°31' W 122°37'0 0.0
2016-Jun-16 14:33N 48°31' W 122°37'0 0.0
2016-Jun-16 13:33N 48°31' W 122°37'0 0.0
2016-Jun-16 12:33N 48°31' W 122°37'0 0.0
2016-Jun-16 11:33N 48°31' W 122°37'0 0.0
2016-Jun-16 10:33N 48°31' W 122°37'0 0.0
2016-Jun-16 09:34N 48°31' W 122°37'0 0.0
2016-Jun-16 08:33N 48°31' W 122°37'0 0.0
2016-Jun-16 07:33N 48°31' W 122°37'0 0.0
2016-Jun-16 06:33N 48°31' W 122°37'0 0.0
2016-Jun-16 05:33N 48°31' W 122°37'0 0.0
2016-Jun-16 04:33N 48°31' W 122°37'0 0.0
2016-Jun-16 03:33N 48°31' W 122°37'0 0.0
2016-Jun-16 02:33N 48°31' W 122°37'0 0.0
2016-Jun-16 01:33N 48°31' W 122°37'0 0.0
2016-Jun-16 00:33N 48°31' W 122°37'0 0.0
2016-Jun-15 22:33N 48°31' W 122°37'0 0.0
2016-Jun-15 21:34N 48°31' W 122°37'0 0.0
2016-Jun-15 20:33N 48°31' W 122°37'0 0.0
2016-Jun-15 19:33N 48°31' W 122°37'0 0.0
2016-Jun-15 18:29N 48°31' W 122°37'4 4.0
2016-Jun-15 17:33N 48°31' W 122°42'1010.0
2016-Jun-15 16:32N 48°21' W 122°45'10 9.5
2016-Jun-15 15:29N 48°11' W 122°45'1111.9
2016-Jun-15 14:33N 48°01' W 122°37'1211.7
2016-Jun-15 13:34N 47°52' W 122°27'1111.1
2016-Jun-15 12:34N 47°40' W 122°27'7 6.5
2016-Jun-15 11:33N 47°35' W 122°22'1 1.1
2016-Jun-15 10:34N 47°36' W 122°22'1 1.3
2016-Jun-15 09:33N 47°35' W 122°21'0 0.3
2016-Jun-15 08:34N 47°35' W 122°21'0 0.0
2016-Jun-15 07:33N 47°35' W 122°21'0 0.0
2016-Jun-15 06:33N 47°35' W 122°21'0 0.0
2016-Jun-15 05:34N 47°35' W 122°21'0 0.0
2016-Jun-15 04:34N 47°35' W 122°21'0 0.1
2016-Jun-15 03:34N 47°35' W 122°21'5 5.4
2016-Jun-15 02:34N 47°30' W 122°25'1111.0
2016-Jun-15 01:34N 47°19' W 122°26'  

Dump ship's entire track history